sensor_id;sensor_type;location;lat;lon;timestamp;pressure;altitude;pressure_sealevel;temperature;humidity
67987;BME280;54767;53.800;15.956;2023-05-10T09:48:47;100248.13;;;18.27;39.42
67987;BME280;54767;53.800;15.956;2023-05-10T09:51:21;100244.45;;;18.33;39.51
67987;BME280;54767;53.800;15.956;2023-05-10T09:54:16;100241.36;;;18.29;39.29
67987;BME280;54767;53.800;15.956;2023-05-10T09:56:45;100240.97;;;18.31;38.85
67987;BME280;54767;53.800;15.956;2023-05-10T09:59:13;100234.77;;;18.31;38.74
67987;BME280;54767;53.800;15.956;2023-05-10T10:01:42;100234.04;;;18.32;38.88
67987;BME280;54767;53.800;15.956;2023-05-10T10:04:17;100228.86;;;18.33;38.20
67987;BME280;54767;53.800;15.956;2023-05-10T10:06:46;100234.08;;;18.30;37.96
67987;BME280;54767;53.800;15.956;2023-05-10T10:09:15;100226.42;;;18.32;37.98
67987;BME280;54767;53.800;15.956;2023-05-10T10:12:03;100209.64;;;18.30;38.12
67987;BME280;54767;53.800;15.956;2023-05-10T10:14:34;100219.63;;;18.34;38.06
67987;BME280;54767;53.800;15.956;2023-05-10T10:17:03;100223.46;;;18.36;37.77
67987;BME280;54767;53.800;15.956;2023-05-10T10:19:37;100225.92;;;18.36;37.33
67987;BME280;54767;53.800;15.956;2023-05-10T10:22:06;100236.05;;;18.35;37.28
67987;BME280;54767;53.800;15.956;2023-05-10T10:24:36;100232.20;;;18.34;37.66
67987;BME280;54767;53.800;15.956;2023-05-10T10:30:41;100216.86;;;18.43;37.23
67987;BME280;54767;53.800;15.956;2023-05-10T10:33:39;100226.63;;;18.48;37.22
67987;BME280;54767;53.800;15.956;2023-05-10T10:36:09;100224.04;;;18.52;37.38
67987;BME280;54767;53.800;15.956;2023-05-10T10:41:30;100211.24;;;18.59;36.79
67987;BME280;54767;53.800;15.956;2023-05-10T10:47:22;100205.05;;;18.69;37.32
67987;BME280;54767;53.800;15.956;2023-05-10T10:53:12;100205.55;;;18.82;36.88
67987;BME280;54767;53.800;15.956;2023-05-10T10:55:47;100207.72;;;18.86;36.77
67987;BME280;54767;53.800;15.956;2023-05-10T10:58:29;100207.54;;;18.92;36.60
67987;BME280;54767;53.800;15.956;2023-05-10T11:01:16;100201.67;;;18.97;36.56
67987;BME280;54767;53.800;15.956;2023-05-10T11:06:32;100204.46;;;19.05;36.51
67987;BME280;54767;53.800;15.956;2023-05-10T11:09:09;100196.47;;;19.05;36.58
67987;BME280;54767;53.800;15.956;2023-05-10T11:11:51;100200.12;;;19.12;36.40
67987;BME280;54767;53.800;15.956;2023-05-10T11:14:21;100199.91;;;19.19;36.82
67987;BME280;54767;53.800;15.956;2023-05-10T11:16:51;100200.05;;;19.25;36.17
67987;BME280;54767;53.800;15.956;2023-05-10T11:19:27;100195.73;;;19.27;36.11
67987;BME280;54767;53.800;15.956;2023-05-10T11:24:34;100188.79;;;19.33;35.96
67987;BME280;54767;53.800;15.956;2023-05-10T11:27:06;100184.71;;;19.37;35.90
67987;BME280;54767;53.800;15.956;2023-05-10T11:29:35;100192.69;;;19.42;35.85
67987;BME280;54767;53.800;15.956;2023-05-10T11:32:26;100198.05;;;19.47;36.21
67987;BME280;54767;53.800;15.956;2023-05-10T11:35:20;100191.23;;;19.49;35.69
67987;BME280;54767;53.800;15.956;2023-05-10T11:38:13;100182.30;;;19.50;35.70
67987;BME280;54767;53.800;15.956;2023-05-10T11:41:11;100184.36;;;19.57;35.94
67987;BME280;54767;53.800;15.956;2023-05-10T11:43:42;100183.57;;;19.65;35.91
67987;BME280;54767;53.800;15.956;2023-05-10T11:46:25;100188.50;;;19.72;35.65
67987;BME280;54767;53.800;15.956;2023-05-10T11:49:00;100184.48;;;19.74;35.40
67987;BME280;54767;53.800;15.956;2023-05-10T11:51:36;100183.17;;;19.81;35.66
67987;BME280;54767;53.800;15.956;2023-05-10T11:54:09;100180.12;;;19.87;35.64
67987;BME280;54767;53.800;15.956;2023-05-10T11:56:40;100190.20;;;19.93;35.63
67987;BME280;54767;53.800;15.956;2023-05-10T11:59:08;100183.05;;;19.98;35.60
67987;BME280;54767;53.800;15.956;2023-05-10T12:01:37;100179.70;;;20.02;35.35
67987;BME280;54767;53.800;15.956;2023-05-10T12:04:06;100177.41;;;20.07;35.18
67987;BME280;54767;53.800;15.956;2023-05-10T12:06:39;100180.85;;;20.09;35.15
67987;BME280;54767;53.800;15.956;2023-05-10T12:09:08;100176.54;;;20.16;35.46
67987;BME280;54767;53.800;15.956;2023-05-10T12:11:39;100190.61;;;20.19;35.04
67987;BME280;54767;53.800;15.956;2023-05-10T12:14:11;100183.90;;;20.23;35.11
67987;BME280;54767;53.800;15.956;2023-05-10T12:16:40;100182.86;;;20.26;35.04
67987;BME280;54767;53.800;15.956;2023-05-10T12:19:09;100186.15;;;20.29;34.93
67987;BME280;54767;53.800;15.956;2023-05-10T12:21:38;100182.90;;;20.30;34.59
67987;BME280;54767;53.800;15.956;2023-05-10T12:24:07;100178.98;;;20.31;34.27
67987;BME280;54767;53.800;15.956;2023-05-10T12:26:36;100178.16;;;20.33;34.23
67987;BME280;54767;53.800;15.956;2023-05-10T12:29:18;100176.36;;;20.34;34.06
67987;BME280;54767;53.800;15.956;2023-05-10T12:31:58;100176.45;;;20.37;34.26
67987;BME280;54767;53.800;15.956;2023-05-10T12:34:32;100184.91;;;20.38;34.64
67987;BME280;54767;53.800;15.956;2023-05-10T12:37:03;100189.17;;;20.43;34.33
67987;BME280;54767;53.800;15.956;2023-05-10T12:39:42;100181.41;;;20.46;34.54
67987;BME280;54767;53.800;15.956;2023-05-10T12:42:13;100179.35;;;20.48;33.93
67987;BME280;54767;53.800;15.956;2023-05-10T12:44:58;100182.88;;;20.49;33.91
67987;BME280;54767;53.800;15.956;2023-05-10T12:47:28;100177.20;;;20.54;34.14
67987;BME280;54767;53.800;15.956;2023-05-10T12:49:56;100181.90;;;20.57;34.17
67987;BME280;54767;53.800;15.956;2023-05-10T12:52:25;100179.96;;;20.61;34.25
67987;BME280;54767;53.800;15.956;2023-05-10T12:54:54;100180.40;;;20.63;34.02
67987;BME280;54767;53.800;15.956;2023-05-10T12:57:23;100182.35;;;20.67;34.13
67987;BME280;54767;53.800;15.956;2023-05-10T12:59:51;100191.11;;;20.71;34.24
67987;BME280;54767;53.800;15.956;2023-05-10T13:02:20;100197.70;;;20.75;33.82
67987;BME280;54767;53.800;15.956;2023-05-10T13:04:49;100191.65;;;20.75;33.55
67987;BME280;54767;53.800;15.956;2023-05-10T13:07:18;100185.06;;;20.75;33.51
67987;BME280;54767;53.800;15.956;2023-05-10T13:09:47;100182.57;;;20.75;33.38
67987;BME280;54767;53.800;15.956;2023-05-10T13:12:15;100183.30;;;20.74;33.42
67987;BME280;54767;53.800;15.956;2023-05-10T13:14:43;100179.14;;;20.76;33.58
67987;BME280;54767;53.800;15.956;2023-05-10T13:17:12;100178.58;;;20.82;33.85
67987;BME280;54767;53.800;15.956;2023-05-10T13:19:40;100172.29;;;20.83;33.61
67987;BME280;54767;53.800;15.956;2023-05-10T13:22:08;100176.73;;;20.87;33.73
67987;BME280;54767;53.800;15.956;2023-05-10T13:24:37;100182.73;;;20.89;33.66
67987;BME280;54767;53.800;15.956;2023-05-10T13:27:05;100175.26;;;20.88;33.23
67987;BME280;54767;53.800;15.956;2023-05-10T13:29:33;100175.96;;;20.89;32.88
67987;BME280;54767;53.800;15.956;2023-05-10T13:32:01;100173.66;;;20.88;32.63
67987;BME280;54767;53.800;15.956;2023-05-10T13:34:30;100175.54;;;20.86;32.75
67987;BME280;54767;53.800;15.956;2023-05-10T13:36:58;100173.57;;;20.86;32.58
67987;BME280;54767;53.800;15.956;2023-05-10T13:39:27;100162.37;;;20.86;32.59
67987;BME280;54767;53.800;15.956;2023-05-10T13:41:55;100159.66;;;20.87;32.61
67987;BME280;54767;53.800;15.956;2023-05-10T13:44:23;100161.04;;;20.88;32.92
67987;BME280;54767;53.800;15.956;2023-05-10T13:46:52;100160.23;;;20.95;33.48
67987;BME280;54767;53.800;15.956;2023-05-10T13:49:20;100156.42;;;21.01;33.05
67987;BME280;54767;53.800;15.956;2023-05-10T13:51:49;100158.59;;;21.00;32.88
67987;BME280;54767;53.800;15.956;2023-05-10T13:54:18;100153.76;;;21.00;32.89
67987;BME280;54767;53.800;15.956;2023-05-10T13:56:48;100153.23;;;21.05;33.15
67987;BME280;54767;53.800;15.956;2023-05-10T13:59:16;100148.67;;;21.07;32.78
67987;BME280;54767;53.800;15.956;2023-05-10T14:01:45;100149.04;;;21.07;32.59
67987;BME280;54767;53.800;15.956;2023-05-10T14:04:13;100150.70;;;21.10;32.63
67987;BME280;54767;53.800;15.956;2023-05-10T14:06:42;100151.73;;;21.11;32.45
67987;BME280;54767;53.800;15.956;2023-05-10T14:09:10;100146.05;;;21.10;32.43
67987;BME280;54767;53.800;15.956;2023-05-10T14:11:38;100153.85;;;21.11;32.40
67987;BME280;54767;53.800;15.956;2023-05-10T14:14:11;100146.12;;;21.13;32.69
67987;BME280;54767;53.800;15.956;2023-05-10T14:16:44;100153.66;;;21.11;32.44
67987;BME280;54767;53.800;15.956;2023-05-10T14:19:13;100151.97;;;21.05;32.06
67987;BME280;54767;53.800;15.956;2023-05-10T14:21:41;100155.80;;;20.99;32.06
67987;BME280;54767;53.800;15.956;2023-05-10T14:24:09;100150.75;;;20.96;31.73
67987;BME280;54767;53.800;15.956;2023-05-10T14:26:38;100155.34;;;20.93;31.75
67987;BME280;54767;53.800;15.956;2023-05-10T14:29:06;100157.75;;;20.90;31.82
67987;BME280;54767;53.800;15.956;2023-05-10T14:31:37;100157.46;;;20.89;31.89
67987;BME280;54767;53.800;15.956;2023-05-10T14:34:06;100159.81;;;20.88;31.85
67987;BME280;54767;53.800;15.956;2023-05-10T14:36:34;100157.34;;;20.88;31.87
67987;BME280;54767;53.800;15.956;2023-05-10T14:39:03;100156.91;;;20.85;31.89
67987;BME280;54767;53.800;15.956;2023-05-10T14:41:32;100159.38;;;20.81;31.80
67987;BME280;54767;53.800;15.956;2023-05-10T14:44:00;100157.67;;;20.80;31.94
67987;BME280;54767;53.800;15.956;2023-05-10T14:46:31;100149.27;;;20.76;32.03
67987;BME280;54767;53.800;15.956;2023-05-10T14:48:59;100144.75;;;20.78;32.18
67987;BME280;54767;53.800;15.956;2023-05-10T14:51:28;100148.65;;;20.78;32.14
67987;BME280;54767;53.800;15.956;2023-05-10T14:53:56;100139.89;;;20.75;32.12
67987;BME280;54767;53.800;15.956;2023-05-10T14:56:24;100141.77;;;20.72;32.21
67987;BME280;54767;53.800;15.956;2023-05-10T14:58:54;100146.67;;;20.70;32.01
67987;BME280;54767;53.800;15.956;2023-05-10T15:01:23;100152.69;;;20.66;31.70
67987;BME280;54767;53.800;15.956;2023-05-10T15:03:53;100149.38;;;20.61;31.56
67987;BME280;54767;53.800;15.956;2023-05-10T15:06:29;100155.33;;;20.54;31.32
67987;BME280;54767;53.800;15.956;2023-05-10T15:08:58;100151.02;;;20.46;31.38
67987;BME280;54767;53.800;15.956;2023-05-10T15:11:26;100148.48;;;20.42;31.53
67987;BME280;54767;53.800;15.956;2023-05-10T15:13:55;100148.44;;;20.39;31.71
67987;BME280;54767;53.800;15.956;2023-05-10T15:16:23;100151.19;;;20.37;31.97
67987;BME280;54767;53.800;15.956;2023-05-10T15:18:52;100152.55;;;20.34;31.82
67987;BME280;54767;53.800;15.956;2023-05-10T15:21:20;100149.30;;;20.30;31.67
67987;BME280;54767;53.800;15.956;2023-05-10T15:23:49;100146.27;;;20.26;31.46
67987;BME280;54767;53.800;15.956;2023-05-10T15:26:19;100146.35;;;20.20;31.38
67987;BME280;54767;53.800;15.956;2023-05-10T15:29:08;100145.53;;;20.13;31.35
67987;BME280;54767;53.800;15.956;2023-05-10T15:32:23;100153.08;;;20.07;31.55
67987;BME280;54767;53.800;15.956;2023-05-10T15:35:11;100148.21;;;20.04;31.42
67987;BME280;54767;53.800;15.956;2023-05-10T15:37:59;100153.53;;;20.00;31.49
67987;BME280;54767;53.800;15.956;2023-05-10T15:40:33;100148.73;;;19.95;31.28
67987;BME280;54767;53.800;15.956;2023-05-10T15:43:02;100150.30;;;19.91;31.62
67987;BME280;54767;53.800;15.956;2023-05-10T15:45:30;100147.25;;;19.87;31.63
67987;BME280;54767;53.800;15.956;2023-05-10T15:48:00;100150.00;;;19.84;31.75
67987;BME280;54767;53.800;15.956;2023-05-10T15:50:29;100146.05;;;19.81;31.87
67987;BME280;54767;53.800;15.956;2023-05-10T15:52:57;100141.61;;;19.76;31.62
67987;BME280;54767;53.800;15.956;2023-05-10T15:55:26;100148.20;;;19.71;31.55
67987;BME280;54767;53.800;15.956;2023-05-10T15:57:54;100149.84;;;19.65;31.34
67987;BME280;54767;53.800;15.956;2023-05-10T16:00:24;100151.45;;;19.59;31.29
67987;BME280;54767;53.800;15.956;2023-05-10T16:03:04;100150.26;;;19.53;31.55
67987;BME280;54767;53.800;15.956;2023-05-10T16:05:44;100150.89;;;19.45;31.49
67987;BME280;54767;53.800;15.956;2023-05-10T16:08:12;100145.58;;;19.39;31.67
67987;BME280;54767;53.800;15.956;2023-05-10T16:10:42;100148.02;;;19.36;31.76
67987;BME280;54767;53.800;15.956;2023-05-10T16:13:10;100148.30;;;19.33;32.04
67987;BME280;54767;53.800;15.956;2023-05-10T16:15:42;100152.67;;;19.30;32.12
67987;BME280;54767;53.800;15.956;2023-05-10T16:18:11;100148.17;;;19.27;31.83
67987;BME280;54767;53.800;15.956;2023-05-10T16:20:42;100155.59;;;19.23;32.21
67987;BME280;54767;53.800;15.956;2023-05-10T16:23:13;100150.35;;;19.20;32.38
67987;BME280;54767;53.800;15.956;2023-05-10T16:25:46;100150.48;;;19.16;32.48
67987;BME280;54767;53.800;15.956;2023-05-10T16:28:15;100150.61;;;19.12;32.61
67987;BME280;54767;53.800;15.956;2023-05-10T16:30:43;100153.39;;;19.09;32.39
67987;BME280;54767;53.800;15.956;2023-05-10T16:33:12;100152.63;;;19.06;32.82
67987;BME280;54767;53.800;15.956;2023-05-10T16:35:41;100155.64;;;19.01;32.64
67987;BME280;54767;53.800;15.956;2023-05-10T16:38:09;100156.08;;;18.93;32.70
67987;BME280;54767;53.800;15.956;2023-05-10T16:40:38;100157.66;;;18.88;32.82
67987;BME280;54767;53.800;15.956;2023-05-10T16:43:06;100159.27;;;18.82;32.79
67987;BME280;54767;53.800;15.956;2023-05-10T16:45:43;100162.95;;;18.78;32.92
67987;BME280;54767;53.800;15.956;2023-05-10T16:48:12;100167.49;;;18.75;32.82
67987;BME280;54767;53.800;15.956;2023-05-10T16:51:02;100170.61;;;18.70;33.08
67987;BME280;54767;53.800;15.956;2023-05-10T16:53:32;100172.17;;;18.66;33.41
67987;BME280;54767;53.800;15.956;2023-05-10T16:56:05;100176.89;;;18.63;33.45
67987;BME280;54767;53.800;15.956;2023-05-10T16:58:34;100175.43;;;18.58;33.45
67987;BME280;54767;53.800;15.956;2023-05-10T17:01:03;100179.11;;;18.54;33.49
67987;BME280;54767;53.800;15.956;2023-05-10T17:03:32;100175.88;;;18.50;33.70
67987;BME280;54767;53.800;15.956;2023-05-10T17:06:01;100179.58;;;18.45;33.87
67987;BME280;54767;53.800;15.956;2023-05-10T17:08:29;100181.48;;;18.41;33.94
67987;BME280;54767;53.800;15.956;2023-05-10T17:11:02;100181.59;;;18.37;34.22
67987;BME280;54767;53.800;15.956;2023-05-10T17:13:31;100183.52;;;18.32;34.14
67987;BME280;54767;53.800;15.956;2023-05-10T17:16:00;100182.94;;;18.28;33.99
67987;BME280;54767;53.800;15.956;2023-05-10T17:18:32;100182.89;;;18.24;33.94
67987;BME280;54767;53.800;15.956;2023-05-10T17:21:01;100187.27;;;18.20;34.08
67987;BME280;54767;53.800;15.956;2023-05-10T17:23:30;100192.00;;;18.15;34.18
67987;BME280;54767;53.800;15.956;2023-05-10T17:25:59;100194.79;;;18.11;34.21
67987;BME280;54767;53.800;15.956;2023-05-10T17:28:28;100191.48;;;18.09;34.26
67987;BME280;54767;53.800;15.956;2023-05-10T17:30:57;100196.58;;;18.04;34.43
67987;BME280;54767;53.800;15.956;2023-05-10T17:33:26;100198.81;;;18.01;34.51
67987;BME280;54767;53.800;15.956;2023-05-10T17:35:55;100201.04;;;17.97;34.57
67987;BME280;54767;53.800;15.956;2023-05-10T17:38:23;100206.11;;;17.93;34.70
67987;BME280;54767;53.800;15.956;2023-05-10T17:40:53;100209.41;;;17.89;34.83
67987;BME280;54767;53.800;15.956;2023-05-10T17:43:22;100210.08;;;17.84;34.86
67987;BME280;54767;53.800;15.956;2023-05-10T17:45:50;100209.68;;;17.79;35.03
67987;BME280;54767;53.800;15.956;2023-05-10T17:48:20;100214.54;;;17.76;35.10
67987;BME280;54767;53.800;15.956;2023-05-10T17:50:51;100216.27;;;17.70;35.05
67987;BME280;54767;53.800;15.956;2023-05-10T17:53:30;100223.99;;;17.67;35.32
67987;BME280;54767;53.800;15.956;2023-05-10T17:56:00;100225.55;;;17.61;35.32
67987;BME280;54767;53.800;15.956;2023-05-10T17:58:29;100221.77;;;17.57;35.42
67987;BME280;54767;53.800;15.956;2023-05-10T18:00:58;100224.69;;;17.54;35.50
67987;BME280;54767;53.800;15.956;2023-05-10T18:03:26;100224.47;;;17.49;35.60
67987;BME280;54767;53.800;15.956;2023-05-10T18:05:55;100230.09;;;17.44;35.80
67987;BME280;54767;53.800;15.956;2023-05-10T18:08:24;100232.88;;;17.38;35.78
67987;BME280;54767;53.800;15.956;2023-05-10T18:10:54;100234.11;;;17.32;35.96
67987;BME280;54767;53.800;15.956;2023-05-10T18:13:23;100229.86;;;17.25;36.06
67987;BME280;54767;53.800;15.956;2023-05-10T18:15:52;100235.49;;;17.19;36.28
67987;BME280;54767;53.800;15.956;2023-05-10T18:18:21;100237.80;;;17.12;36.50
67987;BME280;54767;53.800;15.956;2023-05-10T18:20:50;100240.11;;;17.04;36.68
67987;BME280;54767;53.800;15.956;2023-05-10T18:23:23;100236.39;;;16.97;36.88
67987;BME280;54767;53.800;15.956;2023-05-10T18:25:52;100240.81;;;16.90;37.05
67987;BME280;54767;53.800;15.956;2023-05-10T18:28:20;100242.59;;;16.82;37.19
67987;BME280;54767;53.800;15.956;2023-05-10T18:30:49;100245.91;;;16.75;37.14
67987;BME280;54767;53.800;15.956;2023-05-10T18:33:18;100248.88;;;16.68;37.32
67987;BME280;54767;53.800;15.956;2023-05-10T18:35:47;100259.29;;;16.62;37.42
67987;BME280;54767;53.800;15.956;2023-05-10T18:38:15;100261.73;;;16.54;37.60
67987;BME280;54767;53.800;15.956;2023-05-10T18:40:44;100264.02;;;16.47;37.75
67987;BME280;54767;53.800;15.956;2023-05-10T18:43:12;100262.42;;;16.39;38.09
67987;BME280;54767;53.800;15.956;2023-05-10T18:45:43;100264.01;;;16.31;38.37
67987;BME280;54767;53.800;15.956;2023-05-10T18:48:12;100269.14;;;16.22;38.58
67987;BME280;54767;53.800;15.956;2023-05-10T18:50:41;100265.40;;;16.15;38.72
67987;BME280;54767;53.800;15.956;2023-05-10T18:53:09;100266.09;;;16.08;39.00
67987;BME280;54767;53.800;15.956;2023-05-10T18:55:38;100265.20;;;15.99;39.13
67987;BME280;54767;53.800;15.956;2023-05-10T18:58:07;100273.47;;;15.91;39.33
67987;BME280;54767;53.800;15.956;2023-05-10T19:00:36;100273.27;;;15.83;39.65
67987;BME280;54767;53.800;15.956;2023-05-10T19:03:04;100275.53;;;15.75;39.80
67987;BME280;54767;53.800;15.956;2023-05-10T19:05:34;100280.23;;;15.69;40.11
67987;BME280;54767;53.800;15.956;2023-05-10T19:08:03;100278.40;;;15.62;40.17
67987;BME280;54767;53.800;15.956;2023-05-10T19:10:31;100282.41;;;15.54;40.44
67987;BME280;54767;53.800;15.956;2023-05-10T19:13:00;100279.41;;;15.44;40.63
67987;BME280;54767;53.800;15.956;2023-05-10T19:15:28;100286.90;;;15.39;40.88
67987;BME280;54767;53.800;15.956;2023-05-10T19:17:56;100290.02;;;15.31;41.00
67987;BME280;54767;53.800;15.956;2023-05-10T19:20:25;100288.21;;;15.24;41.23
67987;BME280;54767;53.800;15.956;2023-05-10T19:22:54;100291.69;;;15.16;41.36
67987;BME280;54767;53.800;15.956;2023-05-10T19:25:40;100295.00;;;15.07;41.47
67987;BME280;54767;53.800;15.956;2023-05-10T19:28:09;100296.70;;;15.00;41.48
67987;BME280;54767;53.800;15.956;2023-05-10T19:30:39;100304.58;;;14.92;41.83
67987;BME280;54767;53.800;15.956;2023-05-10T19:33:07;100300.80;;;14.85;41.85
67987;BME280;54767;53.800;15.956;2023-05-10T19:35:37;100302.30;;;14.78;41.96
67987;BME280;54767;53.800;15.956;2023-05-10T19:38:06;100303.34;;;14.67;42.16
67987;BME280;54767;53.800;15.956;2023-05-10T19:40:39;100303.62;;;14.60;42.21
67987;BME280;54767;53.800;15.956;2023-05-10T19:43:08;100304.93;;;14.53;42.39
67987;BME280;54767;53.800;15.956;2023-05-10T19:45:37;100306.38;;;14.48;42.55
67987;BME280;54767;53.800;15.956;2023-05-10T19:48:09;100308.55;;;14.43;42.54
67987;BME280;54767;53.800;15.956;2023-05-10T19:50:38;100310.88;;;14.40;42.72
67987;BME280;54767;53.800;15.956;2023-05-10T19:53:10;100312.67;;;14.37;42.94
67987;BME280;54767;53.800;15.956;2023-05-10T19:55:43;100313.75;;;14.36;42.94
67987;BME280;54767;53.800;15.956;2023-05-10T19:58:17;100319.23;;;14.34;42.91
67987;BME280;54767;53.800;15.956;2023-05-10T20:01:08;100317.50;;;14.31;43.03
67987;BME280;54767;53.800;15.956;2023-05-10T20:03:36;100321.06;;;14.29;43.05
67987;BME280;54767;53.800;15.956;2023-05-10T20:06:05;100321.60;;;14.27;43.22
67987;BME280;54767;53.800;15.956;2023-05-10T20:08:43;100320.41;;;14.23;43.37
67987;BME280;54767;53.800;15.956;2023-05-10T20:11:12;100324.86;;;14.18;43.67
67987;BME280;54767;53.800;15.956;2023-05-10T20:13:41;100324.04;;;14.14;43.68
67987;BME280;54767;53.800;15.956;2023-05-10T20:16:15;100322.67;;;14.11;43.83
67987;BME280;54767;53.800;15.956;2023-05-10T20:19:00;100320.63;;;14.04;43.86
67987;BME280;54767;53.800;15.956;2023-05-10T20:21:41;100329.61;;;14.03;43.98
67987;BME280;54767;53.800;15.956;2023-05-10T20:24:11;100332.63;;;14.00;44.02
67987;BME280;54767;53.800;15.956;2023-05-10T20:26:40;100329.67;;;13.97;44.03
67987;BME280;54767;53.800;15.956;2023-05-10T20:29:14;100333.03;;;13.95;43.99
67987;BME280;54767;53.800;15.956;2023-05-10T20:31:43;100333.41;;;13.93;44.07
67987;BME280;54767;53.800;15.956;2023-05-10T20:34:14;100332.37;;;13.91;44.14
67987;BME280;54767;53.800;15.956;2023-05-10T20:36:42;100333.10;;;13.89;44.12
67987;BME280;54767;53.800;15.956;2023-05-10T20:39:11;100331.36;;;13.87;43.99
67987;BME280;54767;53.800;15.956;2023-05-10T20:41:40;100336.49;;;13.85;44.08
67987;BME280;54767;53.800;15.956;2023-05-10T20:44:09;100338.09;;;13.83;43.88
67987;BME280;54767;53.800;15.956;2023-05-10T20:46:38;100337.24;;;13.80;43.91
67987;BME280;54767;53.800;15.956;2023-05-10T20:49:18;100336.91;;;13.77;43.87
67987;BME280;54767;53.800;15.956;2023-05-10T20:51:47;100337.98;;;13.77;44.06
67987;BME280;54767;53.800;15.956;2023-05-10T20:54:20;100334.11;;;13.75;43.86
67987;BME280;54767;53.800;15.956;2023-05-10T20:56:50;100332.38;;;13.72;43.84
67987;BME280;54767;53.800;15.956;2023-05-10T20:59:19;100340.65;;;13.72;43.70
67987;BME280;54767;53.800;15.956;2023-05-10T21:01:58;100338.04;;;13.70;43.76
67987;BME280;54767;53.800;15.956;2023-05-10T21:04:27;100338.92;;;13.69;43.81
67987;BME280;54767;53.800;15.956;2023-05-10T21:06:56;100337.89;;;13.67;43.75
67987;BME280;54767;53.800;15.956;2023-05-10T21:09:26;100341.59;;;13.65;43.65
67987;BME280;54767;53.800;15.956;2023-05-10T21:11:55;100337.58;;;13.62;43.62
67987;BME280;54767;53.800;15.956;2023-05-10T21:14:28;100342.35;;;13.60;43.62
67987;BME280;54767;53.800;15.956;2023-05-10T21:16:57;100345.70;;;13.58;43.70
67987;BME280;54767;53.800;15.956;2023-05-10T21:19:25;100346.26;;;13.55;43.65
67987;BME280;54767;53.800;15.956;2023-05-10T21:21:54;100345.91;;;13.52;43.54
67987;BME280;54767;53.800;15.956;2023-05-10T21:24:25;100349.29;;;13.50;43.62
67987;BME280;54767;53.800;15.956;2023-05-10T21:26:56;100348.59;;;13.49;43.58
67987;BME280;54767;53.800;15.956;2023-05-10T21:29:25;100345.61;;;13.48;43.55
67987;BME280;54767;53.800;15.956;2023-05-10T21:31:54;100344.91;;;13.46;43.57
67987;BME280;54767;53.800;15.956;2023-05-10T21:34:22;100347.39;;;13.45;43.56
67987;BME280;54767;53.800;15.956;2023-05-10T21:36:53;100345.65;;;13.44;43.52
67987;BME280;54767;53.800;15.956;2023-05-10T21:39:21;100346.02;;;13.42;43.38
67987;BME280;54767;53.800;15.956;2023-05-10T21:41:50;100346.71;;;13.41;43.48
67987;BME280;54767;53.800;15.956;2023-05-10T21:44:18;100344.80;;;13.39;43.43
67987;BME280;54767;53.800;15.956;2023-05-10T21:46:46;100347.10;;;13.37;43.37
67987;BME280;54767;53.800;15.956;2023-05-10T21:49:15;100345.19;;;13.34;43.23
67987;BME280;54767;53.800;15.956;2023-05-10T21:51:43;100346.08;;;13.32;43.45
67987;BME280;54767;53.800;15.956;2023-05-10T21:54:12;100348.55;;;13.31;43.35
67987;BME280;54767;53.800;15.956;2023-05-10T21:56:42;100349.62;;;13.29;43.47
67987;BME280;54767;53.800;15.956;2023-05-10T21:59:11;100351.22;;;13.27;43.40
67987;BME280;54767;53.800;15.956;2023-05-10T22:01:39;100355.08;;;13.24;43.42
67987;BME280;54767;53.800;15.956;2023-05-10T22:04:08;100355.63;;;13.22;43.41
67987;BME280;54767;53.800;15.956;2023-05-10T22:06:37;100355.64;;;13.19;43.34
67987;BME280;54767;53.800;15.956;2023-05-10T22:09:05;100354.60;;;13.17;43.48
67987;BME280;54767;53.800;15.956;2023-05-10T22:11:33;100353.55;;;13.15;43.40
67987;BME280;54767;53.800;15.956;2023-05-10T22:14:02;100352.69;;;13.12;43.37
67987;BME280;54767;53.800;15.956;2023-05-10T22:16:30;100350.60;;;13.09;43.32
67987;BME280;54767;53.800;15.956;2023-05-10T22:18:58;100350.61;;;13.07;43.43
67987;BME280;54767;53.800;15.956;2023-05-10T22:21:27;100352.04;;;13.05;43.44
67987;BME280;54767;53.800;15.956;2023-05-10T22:23:55;100355.04;;;13.03;43.41
67987;BME280;54767;53.800;15.956;2023-05-10T22:26:24;100354.88;;;13.00;43.51
67987;BME280;54767;53.800;15.956;2023-05-10T22:28:53;100354.89;;;12.98;43.54
67987;BME280;54767;53.800;15.956;2023-05-10T22:31:21;100356.31;;;12.95;43.59
67987;BME280;54767;53.800;15.956;2023-05-10T22:33:49;100360.19;;;12.93;43.58
67987;BME280;54767;53.800;15.956;2023-05-10T22:36:18;100361.95;;;12.91;43.62
67987;BME280;54767;53.800;15.956;2023-05-10T22:38:46;100359.69;;;12.87;43.71
67987;BME280;54767;53.800;15.956;2023-05-10T22:41:14;100360.76;;;12.85;43.77
67987;BME280;54767;53.800;15.956;2023-05-10T22:43:43;100362.88;;;12.83;43.79
67987;BME280;54767;53.800;15.956;2023-05-10T22:46:12;100365.70;;;12.81;43.82
67987;BME280;54767;53.800;15.956;2023-05-10T22:48:41;100363.08;;;12.78;43.93
67987;BME280;54767;53.800;15.956;2023-05-10T22:51:10;100362.21;;;12.76;43.82
67987;BME280;54767;53.800;15.956;2023-05-10T22:53:39;100367.84;;;12.73;43.83
67987;BME280;54767;53.800;15.956;2023-05-10T22:56:08;100366.29;;;12.71;43.89
67987;BME280;54767;53.800;15.956;2023-05-10T22:58:36;100372.08;;;12.69;43.89
67987;BME280;54767;53.800;15.956;2023-05-10T23:01:05;100375.08;;;12.67;44.05
67987;BME280;54767;53.800;15.956;2023-05-10T23:03:42;100372.62;;;12.65;44.11
67987;BME280;54767;53.800;15.956;2023-05-10T23:06:10;100372.28;;;12.62;44.22